createdAt,value
2022-08-12T00:01:00.966Z,18.30
2022-08-12T00:03:46.578Z,18.30
2022-08-12T00:06:32.372Z,18.20
2022-08-12T00:09:17.982Z,18.20
2022-08-12T00:12:08.493Z,18.20
2022-08-12T00:14:54.018Z,18.20
2022-08-12T00:17:39.811Z,18.10
2022-08-12T00:20:26.880Z,18.10
2022-08-12T00:23:16.142Z,18.10
2022-08-12T00:26:21.322Z,18.00
2022-08-12T00:29:12.379Z,18.00
2022-08-12T00:31:58.362Z,18.00
2022-08-12T00:34:48.489Z,17.90
2022-08-12T00:37:35.130Z,17.80
2022-08-12T00:40:20.898Z,17.70
2022-08-12T00:42:48.858Z,17.70
2022-08-12T00:45:19.370Z,17.70
2022-08-12T00:47:47.614Z,17.70
2022-08-12T00:50:19.419Z,17.70
2022-08-12T00:52:48.164Z,17.70
2022-08-12T00:55:17.139Z,17.70
2022-08-12T00:57:47.823Z,17.60
2022-08-12T01:00:21.390Z,17.60
2022-08-12T01:02:52.570Z,17.60
2022-08-12T01:05:39.927Z,17.60
2022-08-12T01:08:25.970Z,17.60
2022-08-12T01:11:13.768Z,17.60
2022-08-12T01:13:44.730Z,17.60
2022-08-12T01:16:17.649Z,17.50
2022-08-12T01:18:46.337Z,17.60
2022-08-12T01:21:20.285Z,17.60
2022-08-12T01:24:29.924Z,17.60
2022-08-12T01:26:54.647Z,17.60
2022-08-12T01:29:26.726Z,17.60
2022-08-12T01:31:59.633Z,17.60
2022-08-12T01:34:36.658Z,17.50
2022-08-12T01:37:08.143Z,17.50
2022-08-12T01:40:33.340Z,17.50
2022-08-12T01:42:40.664Z,17.50
2022-08-12T01:45:12.218Z,17.50
2022-08-12T01:47:57.185Z,17.50
2022-08-12T01:50:33.289Z,17.50
2022-08-12T01:53:08.166Z,17.50
2022-08-12T01:55:39.830Z,17.40
2022-08-12T01:58:23.046Z,17.40
2022-08-12T02:00:59.180Z,17.30
2022-08-12T02:04:12.815Z,17.30
2022-08-12T02:07:11.312Z,17.40
2022-08-12T02:10:11.281Z,17.30
2022-08-12T02:13:08.651Z,17.30
2022-08-12T02:15:46.165Z,17.30
2022-08-12T02:18:25.826Z,17.30
2022-08-12T02:21:01.060Z,17.20
2022-08-12T02:23:29.624Z,17.30
2022-08-12T02:26:02.266Z,17.20
2022-08-12T02:28:31.480Z,17.30
2022-08-12T02:31:05.254Z,17.30
2022-08-12T02:33:34.251Z,17.30
2022-08-12T02:36:03.138Z,17.30
2022-08-12T02:38:31.953Z,17.30
2022-08-12T02:41:03.700Z,17.30
2022-08-12T02:43:38.731Z,17.30
2022-08-12T02:46:14.878Z,17.30
2022-08-12T02:48:50.977Z,17.30
2022-08-12T02:51:20.813Z,17.20
2022-08-12T02:54:04.440Z,17.20
2022-08-12T02:56:37.828Z,17.20
2022-08-12T02:59:09.195Z,17.20
2022-08-12T03:01:47.898Z,17.20
2022-08-12T03:04:24.268Z,17.20
2022-08-12T03:07:00.594Z,17.20
2022-08-12T03:09:34.086Z,17.20
2022-08-12T03:12:15.587Z,17.10
2022-08-12T03:14:48.539Z,17.10
2022-08-12T03:17:26.032Z,17.10
2022-08-12T03:20:09.952Z,17.10
2022-08-12T03:22:41.041Z,17.10
2022-08-12T03:25:16.088Z,17.10
2022-08-12T03:27:49.594Z,17.10
2022-08-12T03:30:19.262Z,17.10
2022-08-12T03:32:50.758Z,17.20
2022-08-12T03:35:40.940Z,17.20
2022-08-12T03:38:16.089Z,17.10
2022-08-12T03:41:15.196Z,17.10
2022-08-12T03:44:08.733Z,17.00
2022-08-12T03:47:00.741Z,17.00
2022-08-12T03:49:48.042Z,17.00
2022-08-12T03:52:33.239Z,16.90
2022-08-12T03:55:18.752Z,16.90
2022-08-12T03:58:07.712Z,16.80
2022-08-12T04:00:37.450Z,16.70
2022-08-12T04:03:25.396Z,16.70
2022-08-12T04:05:56.772Z,16.70
2022-08-12T04:08:27.001Z,16.70
2022-08-12T04:11:13.190Z,16.60
2022-08-12T04:13:41.645Z,16.50
2022-08-12T04:16:13.419Z,16.50
2022-08-12T04:18:42.286Z,16.50
2022-08-12T04:21:11.668Z,16.50
2022-08-12T04:23:47.734Z,16.50
2022-08-12T04:26:17.016Z,16.50
2022-08-12T04:28:45.844Z,16.50
2022-08-12T04:31:14.040Z,16.50
2022-08-12T04:33:43.423Z,16.50
2022-08-12T04:36:12.770Z,16.40
2022-08-12T04:38:40.804Z,16.40
2022-08-12T04:41:10.783Z,16.40
2022-08-12T04:43:59.944Z,16.40
2022-08-12T04:46:30.716Z,16.50
2022-08-12T04:49:03.189Z,16.50
2022-08-12T04:51:33.111Z,16.50
2022-08-12T04:54:02.199Z,16.50
2022-08-12T04:56:30.504Z,16.60
2022-08-12T04:59:03.908Z,16.60
2022-08-12T05:01:32.789Z,16.70
2022-08-12T05:04:02.688Z,16.70
2022-08-12T05:06:31.824Z,16.70
2022-08-12T05:09:00.794Z,16.80
2022-08-12T05:11:29.089Z,16.90
2022-08-12T05:13:59.852Z,16.90
2022-08-12T05:16:30.861Z,17.00
2022-08-12T05:18:59.610Z,17.00
2022-08-12T05:21:27.418Z,17.00
2022-08-12T05:23:56.702Z,17.10
2022-08-12T05:26:25.041Z,17.20
2022-08-12T05:28:54.005Z,17.30
2022-08-12T05:31:47.519Z,17.40
2022-08-12T05:34:11.528Z,17.40
2022-08-12T05:36:39.318Z,17.50
2022-08-12T05:39:08.517Z,17.70
2022-08-12T05:41:37.885Z,17.70
2022-08-12T05:44:08.433Z,17.90
2022-08-12T05:46:37.755Z,18.00
2022-08-12T05:49:06.488Z,18.20
2022-08-12T05:51:39.612Z,18.30
2022-08-12T05:54:12.115Z,18.60
2022-08-12T05:56:41.439Z,18.90
2022-08-12T05:59:13.868Z,19.10
2022-08-12T06:02:09.955Z,19.30
2022-08-12T06:04:33.094Z,19.60
2022-08-12T06:07:01.671Z,19.90
2022-08-12T06:09:31.157Z,20.10
2022-08-12T06:12:05.748Z,20.20
2022-08-12T06:14:39.001Z,20.40
2022-08-12T06:17:08.520Z,20.70
2022-08-12T06:20:28.089Z,20.90
2022-08-12T06:22:24.230Z,21.10
2022-08-12T06:24:53.865Z,21.30
2022-08-12T06:27:22.082Z,21.40
2022-08-12T06:30:08.974Z,21.60
2022-08-12T06:32:42.848Z,21.80
2022-08-12T06:35:23.377Z,22.00
2022-08-12T06:37:57.610Z,22.20
2022-08-12T06:40:44.798Z,22.50
2022-08-12T06:43:14.071Z,22.70
2022-08-12T06:45:46.700Z,23.00
2022-08-12T06:48:15.089Z,23.20
2022-08-12T06:50:44.350Z,23.30
2022-08-12T06:53:12.301Z,23.50
2022-08-12T06:55:57.816Z,23.80
2022-08-12T06:58:27.083Z,24.00
2022-08-12T07:00:56.002Z,24.20
2022-08-12T07:03:27.633Z,24.40
2022-08-12T07:05:57.206Z,24.70
2022-08-12T07:08:28.869Z,24.80
2022-08-12T07:10:59.936Z,25.00
2022-08-12T07:13:28.891Z,25.10
2022-08-12T07:15:58.490Z,25.20
2022-08-12T07:18:32.669Z,25.20
2022-08-12T07:21:03.790Z,25.30
2022-08-12T07:23:33.456Z,25.50
2022-08-12T07:26:03.653Z,25.60
2022-08-12T07:28:35.388Z,25.70
2022-08-12T07:31:04.870Z,25.70
2022-08-12T07:33:32.947Z,25.50
2022-08-12T07:36:03.082Z,25.70
2022-08-12T07:38:33.475Z,26.00
2022-08-12T07:41:06.610Z,26.30
2022-08-12T07:43:39.106Z,26.60
2022-08-12T07:46:09.315Z,26.80
2022-08-12T07:48:40.067Z,26.70
2022-08-12T07:51:08.349Z,26.90
2022-08-12T07:53:54.823Z,27.20
2022-08-12T07:56:27.363Z,27.50
2022-08-12T07:58:59.183Z,27.10
2022-08-12T08:01:28.110Z,27.30
2022-08-12T08:04:18.745Z,27.70
2022-08-12T08:06:48.246Z,27.90
2022-08-12T08:09:19.051Z,28.20
2022-08-12T08:12:06.423Z,28.30
2022-08-12T08:14:34.521Z,28.30
2022-08-12T08:17:06.327Z,28.10
2022-08-12T08:20:02.345Z,28.30
2022-08-12T08:22:40.802Z,28.30
2022-08-12T08:25:20.438Z,28.50
2022-08-12T08:28:01.252Z,28.40
2022-08-12T08:30:30.434Z,28.50
2022-08-12T08:32:58.613Z,28.60
2022-08-12T08:35:31.221Z,28.40
2022-08-12T08:38:20.457Z,28.30
2022-08-12T08:42:14.031Z,28.30
2022-08-12T08:44:07.978Z,28.70
2022-08-12T08:46:37.657Z,29.20
2022-08-12T08:49:06.309Z,29.10
2022-08-12T08:51:35.128Z,29.10
2022-08-12T08:54:03.505Z,29.30
2022-08-12T08:56:31.313Z,29.00
2022-08-12T08:58:59.327Z,29.00
2022-08-12T09:01:37.893Z,28.80
2022-08-12T09:05:14.489Z,28.70
2022-08-12T09:06:56.638Z,29.00
2022-08-12T09:09:34.142Z,29.30
2022-08-12T09:12:30.827Z,29.70
2022-08-12T09:14:58.778Z,29.60
2022-08-12T09:17:42.967Z,29.60
2022-08-12T09:20:16.702Z,29.40
2022-08-12T09:25:33.916Z,29.10
2022-08-12T09:28:05.947Z,29.10
2022-08-12T09:30:42.281Z,29.60
2022-08-12T09:33:19.307Z,29.80
2022-08-12T09:36:04.895Z,30.10
2022-08-12T09:38:35.387Z,30.00
2022-08-12T09:42:35.179Z,30.30
2022-08-12T09:44:38.527Z,30.30
2022-08-12T09:46:58.722Z,30.50
2022-08-12T09:49:41.470Z,31.00
2022-08-12T09:52:11.550Z,31.20
2022-08-12T09:54:42.838Z,31.40
2022-08-12T09:58:07.287Z,31.30
2022-08-12T10:00:15.435Z,31.40
2022-08-12T10:03:00.844Z,31.20
2022-08-12T10:06:20.529Z,31.20
2022-08-12T10:08:21.888Z,31.20
2022-08-12T10:11:09.143Z,31.50
2022-08-12T10:13:49.870Z,31.70
2022-08-12T10:16:22.403Z,31.50
2022-08-12T10:18:54.470Z,31.80
2022-08-12T10:21:36.009Z,32.20
2022-08-12T10:24:06.833Z,32.40
2022-08-12T10:26:54.828Z,32.60
2022-08-12T10:30:40.769Z,32.60
2022-08-12T10:32:43.160Z,32.50
2022-08-12T10:35:16.216Z,32.60
2022-08-12T10:38:35.751Z,32.60
2022-08-12T10:40:55.562Z,32.70
2022-08-12T10:43:55.542Z,31.80
2022-08-12T10:46:31.397Z,32.10
2022-08-12T10:49:06.500Z,32.20
2022-08-12T10:52:33.367Z,32.50
2022-08-12T10:54:42.490Z,32.60
2022-08-12T10:57:18.540Z,32.80
2022-08-12T11:00:30.755Z,32.80
2022-08-12T11:04:23.739Z,32.90
2022-08-12T11:07:06.816Z,32.90
2022-08-12T11:08:37.036Z,33.00
2022-08-12T11:11:13.468Z,33.20
2022-08-12T11:13:46.965Z,33.20
2022-08-12T11:16:19.756Z,33.10
2022-08-12T11:18:55.423Z,32.90
2022-08-12T11:21:56.846Z,33.00
2022-08-12T11:24:30.791Z,33.20
2022-08-12T11:27:11.556Z,33.30
2022-08-12T11:30:06.445Z,33.40
2022-08-12T11:32:27.472Z,33.60
2022-08-12T11:34:55.481Z,33.20
2022-08-12T11:37:27.586Z,33.00
2022-08-12T11:42:37.283Z,33.20
2022-08-12T11:45:10.289Z,33.20
2022-08-12T11:47:40.211Z,33.20
2022-08-12T11:50:11.833Z,33.20
2022-08-12T11:52:56.263Z,33.20
2022-08-12T11:55:25.329Z,33.20
2022-08-12T11:58:14.621Z,33.00
2022-08-12T12:03:45.708Z,32.80
2022-08-12T12:06:17.010Z,33.00
2022-08-12T12:08:51.029Z,32.80
2022-08-12T12:11:21.976Z,32.90
2022-08-12T12:14:07.684Z,32.80
2022-08-12T12:16:39.703Z,32.80
2022-08-12T12:19:08.795Z,32.80
2022-08-12T12:21:48.667Z,32.70
2022-08-12T12:24:21.276Z,32.20
2022-08-12T12:27:00.562Z,32.00
2022-08-12T12:30:19.199Z,31.80
2022-08-12T12:32:29.426Z,31.90
2022-08-12T12:35:18.164Z,31.60
2022-08-12T12:38:03.822Z,31.60
2022-08-12T12:40:35.386Z,31.80
2022-08-12T12:43:08.385Z,32.00
2022-08-12T12:45:39.461Z,32.10
2022-08-12T12:48:14.342Z,32.10
2022-08-12T12:50:45.668Z,32.10
2022-08-12T12:54:06.164Z,32.00
2022-08-12T12:56:15.967Z,32.00
2022-08-12T12:58:44.114Z,32.00
2022-08-12T13:01:28.025Z,31.90
2022-08-12T13:04:02.414Z,31.90
2022-08-12T13:06:32.016Z,31.70
2022-08-12T13:09:02.758Z,31.70
2022-08-12T13:11:38.993Z,31.70
2022-08-12T13:14:28.275Z,31.70
2022-08-12T13:17:00.930Z,31.80
2022-08-12T13:19:36.536Z,31.80
2022-08-12T13:22:27.014Z,31.80
2022-08-12T13:24:59.589Z,31.90
2022-08-12T13:27:35.005Z,31.90
2022-08-12T13:30:13.075Z,32.00
2022-08-12T13:32:56.884Z,31.90
2022-08-12T13:36:03.079Z,31.70
2022-08-12T13:38:14.114Z,31.70
2022-08-12T13:40:41.986Z,31.80
2022-08-12T13:43:15.419Z,31.80
2022-08-12T13:46:03.439Z,31.70
2022-08-12T13:48:32.634Z,31.50
2022-08-12T13:51:01.497Z,31.40
2022-08-12T13:53:40.225Z,31.40
2022-08-12T13:56:22.018Z,31.40
2022-08-12T13:58:52.592Z,31.50
2022-08-12T14:01:22.003Z,31.60
2022-08-12T14:03:53.543Z,31.70
2022-08-12T14:06:26.004Z,31.70
2022-08-12T14:08:58.610Z,31.70
2022-08-12T14:11:28.119Z,31.60
2022-08-12T14:14:03.612Z,31.60
2022-08-12T14:16:48.994Z,31.50
2022-08-12T14:19:24.994Z,31.40
2022-08-12T14:21:59.526Z,31.20
2022-08-12T14:24:36.908Z,31.20
2022-08-12T14:27:10.458Z,31.20
2022-08-12T14:30:05.106Z,31.30
2022-08-12T14:32:35.022Z,31.40
2022-08-12T14:35:08.966Z,31.40
2022-08-12T14:37:56.136Z,31.40
2022-08-12T14:40:27.895Z,31.40
2022-08-12T14:42:57.310Z,31.40
2022-08-12T14:45:44.995Z,31.40
2022-08-12T14:48:14.885Z,31.40
2022-08-12T14:51:09.662Z,31.20
2022-08-12T14:59:57.517Z,31.10
2022-08-12T15:02:20.454Z,31.10
2022-08-12T15:04:52.228Z,30.90
2022-08-12T15:07:34.109Z,30.80
2022-08-12T15:10:10.733Z,30.90
2022-08-12T15:12:40.601Z,30.90
2022-08-12T15:15:10.375Z,30.80
2022-08-12T15:17:39.502Z,30.80
2022-08-12T15:20:32.630Z,30.70
2022-08-12T15:22:58.194Z,30.70
2022-08-12T15:25:26.431Z,30.50
2022-08-12T15:28:05.709Z,30.40
2022-08-12T15:30:37.077Z,30.30
2022-08-12T15:33:14.778Z,30.30
2022-08-12T15:35:52.749Z,30.20
2022-08-12T15:38:28.082Z,30.10
2022-08-12T15:40:58.955Z,30.00
2022-08-12T15:43:51.544Z,30.00
2022-08-12T15:46:17.643Z,29.90
2022-08-12T15:48:49.290Z,29.90
2022-08-12T15:51:58.951Z,29.90
2022-08-12T15:54:33.914Z,29.70
2022-08-12T15:57:05.704Z,29.60
2022-08-12T15:59:51.524Z,29.50
2022-08-12T16:02:26.687Z,29.50
2022-08-12T16:04:55.358Z,29.40
2022-08-12T16:07:26.241Z,29.40
2022-08-12T16:10:05.518Z,29.40
2022-08-12T16:12:42.144Z,29.20
2022-08-12T16:15:13.147Z,29.10
2022-08-12T16:18:19.216Z,29.00
2022-08-12T16:20:33.571Z,28.90
2022-08-12T16:23:36.280Z,28.90
2022-08-12T16:26:05.265Z,28.90
2022-08-12T16:28:34.961Z,28.90
2022-08-12T16:31:04.722Z,28.70
2022-08-12T16:33:59.436Z,28.60
2022-08-12T16:36:25.285Z,28.60
2022-08-12T16:38:53.164Z,28.50
2022-08-12T16:41:23.021Z,28.40
2022-08-12T16:43:53.308Z,28.40
2022-08-12T16:46:33.398Z,28.40
2022-08-12T16:49:08.632Z,28.40
2022-08-12T16:51:45.819Z,28.40
2022-08-12T16:54:16.043Z,28.30
2022-08-12T16:56:54.480Z,28.30
2022-08-12T16:59:31.211Z,28.30
2022-08-12T17:02:18.126Z,28.40
2022-08-12T17:05:03.571Z,28.30
2022-08-12T17:07:37.812Z,28.20
2022-08-12T17:10:07.599Z,28.00
2022-08-12T17:12:38.294Z,27.90
2022-08-12T17:15:50.639Z,27.90
2022-08-12T17:18:38.830Z,27.90
2022-08-12T17:20:47.604Z,27.90
2022-08-12T17:23:17.243Z,27.80
2022-08-12T17:25:46.382Z,27.80
2022-08-12T17:28:19.230Z,27.70
2022-08-12T17:30:59.558Z,27.70
2022-08-12T17:33:33.303Z,27.60
2022-08-12T17:36:05.582Z,27.60
2022-08-12T17:38:34.794Z,27.40
2022-08-12T17:41:22.543Z,27.40
2022-08-12T17:43:58.130Z,27.40
2022-08-12T17:46:33.624Z,27.20
2022-08-12T17:49:06.536Z,27.10
2022-08-12T17:51:50.985Z,27.10
2022-08-12T17:54:31.553Z,27.00
2022-08-12T17:57:02.402Z,27.00
2022-08-12T17:59:49.003Z,26.90
2022-08-12T18:02:22.516Z,26.90
2022-08-12T18:05:09.844Z,26.80
2022-08-12T18:07:39.526Z,26.80
2022-08-12T18:10:08.533Z,26.70
2022-08-12T18:12:42.844Z,26.70
2022-08-12T18:15:26.815Z,26.60
2022-08-12T18:18:17.386Z,26.60
2022-08-12T18:20:47.489Z,26.50
2022-08-12T18:23:16.345Z,26.40
2022-08-12T18:26:14.836Z,26.30
2022-08-12T18:28:47.968Z,26.20
2022-08-12T18:31:18.925Z,26.10
2022-08-12T18:33:47.566Z,26.10
2022-08-12T18:36:22.306Z,26.00
2022-08-12T18:38:53.030Z,26.00
2022-08-12T18:41:34.252Z,25.90
2022-08-12T18:44:09.636Z,25.80
2022-08-12T18:46:53.856Z,25.70
2022-08-12T18:49:29.662Z,25.60
2022-08-12T18:52:04.848Z,25.60
2022-08-12T18:54:35.614Z,25.50
2022-08-12T18:57:16.604Z,25.50
2022-08-12T19:00:01.582Z,25.40
2022-08-12T19:02:40.482Z,25.30
2022-08-12T19:05:11.988Z,25.20
2022-08-12T19:07:50.147Z,25.20
2022-08-12T19:10:31.440Z,25.10
2022-08-12T19:13:23.287Z,25.00
2022-08-12T19:15:54.108Z,25.00
2022-08-12T19:18:29.872Z,25.00
2022-08-12T19:20:58.600Z,25.00
2022-08-12T19:23:34.887Z,25.00
2022-08-12T19:26:04.368Z,24.90
2022-08-12T19:28:35.238Z,24.80
2022-08-12T19:31:56.301Z,24.80
2022-08-12T19:37:27.438Z,24.60
2022-08-12T19:40:09.549Z,24.60
2022-08-12T19:42:57.429Z,24.50
2022-08-12T19:45:41.745Z,24.40
2022-08-12T19:48:17.073Z,24.40
2022-08-12T19:50:49.905Z,24.30
2022-08-12T19:53:22.957Z,24.30
2022-08-12T19:55:53.977Z,24.30
2022-08-12T19:58:23.252Z,24.20
2022-08-12T20:00:54.395Z,24.10
2022-08-12T20:03:38.126Z,24.10
2022-08-12T20:06:14.025Z,24.10
2022-08-12T20:08:49.311Z,24.00
2022-08-12T20:12:12.295Z,24.00
2022-08-12T20:14:14.128Z,23.90
2022-08-12T20:16:51.872Z,23.80
2022-08-12T20:19:52.377Z,23.70
2022-08-12T20:22:23.398Z,23.60
2022-08-12T20:24:55.385Z,23.50
2022-08-12T20:27:54.012Z,23.40
2022-08-12T20:30:15.001Z,23.20
2022-08-12T20:32:53.850Z,23.00
2022-08-12T20:35:24.738Z,23.00
2022-08-12T20:38:07.407Z,22.90
2022-08-12T20:40:48.694Z,22.90
2022-08-12T20:43:20.765Z,22.80
2022-08-12T20:45:57.804Z,22.80
2022-08-12T20:48:29.463Z,22.70
2022-08-12T20:50:58.032Z,22.70
2022-08-12T20:53:57.557Z,22.60
2022-08-12T20:56:31.086Z,22.50
2022-08-12T20:59:00.912Z,22.50
2022-08-12T21:01:46.557Z,22.40
2022-08-12T21:04:35.644Z,22.40
2022-08-12T21:07:09.423Z,22.40
2022-08-12T21:09:42.385Z,22.30
2022-08-12T21:12:30.912Z,22.30
2022-08-12T21:15:18.098Z,22.30
2022-08-12T21:18:00.686Z,22.20
2022-08-12T21:20:37.873Z,22.10
2022-08-12T21:23:06.523Z,22.10
2022-08-12T21:25:45.271Z,22.00
2022-08-12T21:28:14.027Z,22.00
2022-08-12T21:30:54.876Z,21.90
2022-08-12T21:33:31.686Z,21.80
2022-08-12T21:36:00.860Z,21.80
2022-08-12T21:38:34.911Z,21.80
2022-08-12T21:41:06.904Z,21.70
2022-08-12T21:43:38.973Z,21.70
2022-08-12T21:46:34.777Z,21.60
2022-08-12T21:49:05.498Z,21.60
2022-08-12T21:51:50.026Z,21.50
2022-08-12T21:54:21.684Z,21.50
2022-08-12T21:56:53.663Z,21.40
2022-08-12T21:59:21.976Z,21.40
2022-08-12T22:01:50.273Z,21.30
2022-08-12T22:04:36.637Z,21.30
2022-08-12T22:07:06.042Z,21.20
2022-08-12T22:09:43.400Z,21.20
2022-08-12T22:12:30.751Z,21.20
2022-08-12T22:14:58.910Z,21.10
2022-08-12T22:17:50.243Z,21.00
2022-08-12T22:20:23.855Z,20.90
2022-08-12T22:22:59.493Z,20.90
2022-08-12T22:25:28.542Z,20.90
2022-08-12T22:28:16.323Z,20.90
2022-08-12T22:31:01.542Z,20.90
2022-08-12T22:33:29.455Z,20.90
2022-08-12T22:36:24.273Z,20.90
2022-08-12T22:38:58.776Z,20.90
2022-08-12T22:41:48.457Z,20.90
2022-08-12T22:44:54.727Z,20.90
2022-08-12T22:47:51.146Z,20.80
2022-08-12T22:50:27.467Z,20.80
2022-08-12T22:53:15.028Z,20.80
2022-08-12T22:56:00.139Z,20.80
2022-08-12T22:58:36.570Z,20.80
2022-08-12T23:01:08.084Z,20.80
2022-08-12T23:03:48.204Z,20.80
2022-08-12T23:06:19.938Z,20.80
2022-08-12T23:08:48.487Z,20.80
2022-08-12T23:11:17.872Z,20.80
2022-08-12T23:13:55.975Z,20.70
2022-08-12T23:16:30.953Z,20.70
2022-08-12T23:19:09.609Z,20.70
2022-08-12T23:21:40.389Z,20.70
2022-08-12T23:24:29.441Z,20.70
2022-08-12T23:27:15.672Z,20.70
2022-08-12T23:29:59.460Z,20.70
2022-08-12T23:32:35.794Z,20.60
2022-08-12T23:35:06.552Z,20.60
2022-08-12T23:37:46.781Z,20.60
2022-08-12T23:40:22.179Z,20.50
2022-08-12T23:42:50.459Z,20.40
2022-08-12T23:45:20.296Z,20.40
2022-08-12T23:48:00.289Z,20.40
2022-08-12T23:50:34.455Z,20.30
2022-08-12T23:53:05.657Z,20.30
2022-08-12T23:55:40.434Z,20.30
2022-08-12T23:58:17.807Z,20.30
